sensor_id;sensor_type;location;lat;lon;timestamp;P1;durP1;ratioP1;P2;durP2;ratioP2
26594;SDS011;14238;49.496;8.154;2023-11-21T00:02:19;0.70;;;0.70;;
26594;SDS011;14238;49.496;8.154;2023-11-21T00:04:45;1.20;;;1.10;;
26594;SDS011;14238;49.496;8.154;2023-11-21T00:07:12;2.53;;;1.07;;
26594;SDS011;14238;49.496;8.154;2023-11-21T00:09:37;0.83;;;0.83;;
26594;SDS011;14238;49.496;8.154;2023-11-21T00:12:03;0.70;;;0.70;;
26594;SDS011;14238;49.496;8.154;2023-11-21T00:14:29;1.07;;;1.00;;
26594;SDS011;14238;49.496;8.154;2023-11-21T00:16:55;1.50;;;1.00;;
26594;SDS011;14238;49.496;8.154;2023-11-21T00:19:20;1.30;;;1.20;;
26594;SDS011;14238;49.496;8.154;2023-11-21T00:21:46;1.10;;;1.10;;
26594;SDS011;14238;49.496;8.154;2023-11-21T00:24:11;1.80;;;1.00;;
26594;SDS011;14238;49.496;8.154;2023-11-21T00:26:38;1.30;;;0.93;;
26594;SDS011;14238;49.496;8.154;2023-11-21T00:29:05;1.33;;;0.87;;
26594;SDS011;14238;49.496;8.154;2023-11-21T00:31:33;1.00;;;1.00;;
26594;SDS011;14238;49.496;8.154;2023-11-21T00:34:05;0.90;;;0.90;;
26594;SDS011;14238;49.496;8.154;2023-11-21T00:36:33;1.17;;;1.07;;
26594;SDS011;14238;49.496;8.154;2023-11-21T00:38:59;2.67;;;1.40;;
26594;SDS011;14238;49.496;8.154;2023-11-21T00:41:25;1.23;;;1.00;;
26594;SDS011;14238;49.496;8.154;2023-11-21T00:43:53;2.17;;;1.70;;
26594;SDS011;14238;49.496;8.154;2023-11-21T00:46:20;1.60;;;1.33;;
26594;SDS011;14238;49.496;8.154;2023-11-21T00:48:45;0.90;;;0.90;;
26594;SDS011;14238;49.496;8.154;2023-11-21T00:51:11;1.10;;;1.10;;
26594;SDS011;14238;49.496;8.154;2023-11-21T00:53:36;0.77;;;0.67;;
26594;SDS011;14238;49.496;8.154;2023-11-21T00:56:02;1.47;;;0.90;;
26594;SDS011;14238;49.496;8.154;2023-11-21T00:58:28;1.10;;;0.80;;
26594;SDS011;14238;49.496;8.154;2023-11-21T01:00:53;1.30;;;1.03;;
26594;SDS011;14238;49.496;8.154;2023-11-21T01:03:19;1.07;;;0.97;;
26594;SDS011;14238;49.496;8.154;2023-11-21T01:05:45;1.70;;;1.10;;
26594;SDS011;14238;49.496;8.154;2023-11-21T01:08:11;1.27;;;1.20;;
26594;SDS011;14238;49.496;8.154;2023-11-21T01:10:37;0.83;;;0.83;;
26594;SDS011;14238;49.496;8.154;2023-11-21T01:13:03;1.07;;;1.03;;
26594;SDS011;14238;49.496;8.154;2023-11-21T01:15:32;0.90;;;0.90;;
26594;SDS011;14238;49.496;8.154;2023-11-21T01:18:00;1.00;;;1.00;;
26594;SDS011;14238;49.496;8.154;2023-11-21T01:20:26;3.60;;;1.10;;
26594;SDS011;14238;49.496;8.154;2023-11-21T01:22:51;1.40;;;0.90;;
26594;SDS011;14238;49.496;8.154;2023-11-21T01:25:18;1.13;;;1.03;;
26594;SDS011;14238;49.496;8.154;2023-11-21T01:27:46;1.27;;;0.90;;
26594;SDS011;14238;49.496;8.154;2023-11-21T01:30:11;1.00;;;1.00;;
26594;SDS011;14238;49.496;8.154;2023-11-21T01:32:37;2.10;;;1.33;;
26594;SDS011;14238;49.496;8.154;2023-11-21T01:35:04;1.27;;;1.17;;
26594;SDS011;14238;49.496;8.154;2023-11-21T01:37:31;0.80;;;0.80;;
26594;SDS011;14238;49.496;8.154;2023-11-21T01:39:58;1.07;;;0.80;;
26594;SDS011;14238;49.496;8.154;2023-11-21T01:42:24;0.80;;;0.80;;
26594;SDS011;14238;49.496;8.154;2023-11-21T01:44:49;1.83;;;0.80;;
26594;SDS011;14238;49.496;8.154;2023-11-21T01:47:15;1.00;;;0.90;;
26594;SDS011;14238;49.496;8.154;2023-11-21T01:49:43;4.23;;;1.20;;
26594;SDS011;14238;49.496;8.154;2023-11-21T01:52:10;2.20;;;1.67;;
26594;SDS011;14238;49.496;8.154;2023-11-21T01:54:36;2.80;;;1.90;;
26594;SDS011;14238;49.496;8.154;2023-11-21T01:57:03;1.43;;;1.33;;
26594;SDS011;14238;49.496;8.154;2023-11-21T01:59:34;1.40;;;1.30;;
26594;SDS011;14238;49.496;8.154;2023-11-21T02:02:04;1.93;;;1.77;;
26594;SDS011;14238;49.496;8.154;2023-11-21T02:04:34;1.93;;;1.83;;
26594;SDS011;14238;49.496;8.154;2023-11-21T02:07:01;2.80;;;2.23;;
26594;SDS011;14238;49.496;8.154;2023-11-21T02:09:30;3.37;;;2.37;;
26594;SDS011;14238;49.496;8.154;2023-11-21T02:11:58;2.33;;;2.20;;
26594;SDS011;14238;49.496;8.154;2023-11-21T02:14:24;3.77;;;2.50;;
26594;SDS011;14238;49.496;8.154;2023-11-21T02:16:51;2.20;;;2.10;;
26594;SDS011;14238;49.496;8.154;2023-11-21T02:19:18;2.77;;;1.90;;
26594;SDS011;14238;49.496;8.154;2023-11-21T02:21:50;2.93;;;2.30;;
26594;SDS011;14238;49.496;8.154;2023-11-21T02:24:18;2.10;;;2.00;;
26594;SDS011;14238;49.496;8.154;2023-11-21T02:26:45;2.50;;;2.30;;
26594;SDS011;14238;49.496;8.154;2023-11-21T02:29:11;2.90;;;2.40;;
26594;SDS011;14238;49.496;8.154;2023-11-21T02:31:37;1.90;;;1.70;;
26594;SDS011;14238;49.496;8.154;2023-11-21T02:34:10;2.23;;;1.90;;
26594;SDS011;14238;49.496;8.154;2023-11-21T02:36:38;3.00;;;1.63;;
26594;SDS011;14238;49.496;8.154;2023-11-21T02:39:03;2.90;;;2.57;;
26594;SDS011;14238;49.496;8.154;2023-11-21T02:41:29;4.50;;;2.40;;
26594;SDS011;14238;49.496;8.154;2023-11-21T02:43:55;2.80;;;2.60;;
26594;SDS011;14238;49.496;8.154;2023-11-21T02:46:20;3.00;;;2.03;;
26594;SDS011;14238;49.496;8.154;2023-11-21T02:48:47;1.90;;;1.80;;
26594;SDS011;14238;49.496;8.154;2023-11-21T02:51:12;2.50;;;2.23;;
26594;SDS011;14238;49.496;8.154;2023-11-21T02:53:38;2.63;;;2.43;;
26594;SDS011;14238;49.496;8.154;2023-11-21T02:56:03;3.20;;;2.93;;
26594;SDS011;14238;49.496;8.154;2023-11-21T02:58:29;2.40;;;1.73;;
26594;SDS011;14238;49.496;8.154;2023-11-21T03:00:55;2.00;;;1.80;;
26594;SDS011;14238;49.496;8.154;2023-11-21T03:03:21;1.77;;;1.67;;
26594;SDS011;14238;49.496;8.154;2023-11-21T03:05:49;1.97;;;1.87;;
26594;SDS011;14238;49.496;8.154;2023-11-21T03:08:15;1.90;;;1.80;;
26594;SDS011;14238;49.496;8.154;2023-11-21T03:10:40;1.80;;;1.70;;
26594;SDS011;14238;49.496;8.154;2023-11-21T03:13:06;2.13;;;1.40;;
26594;SDS011;14238;49.496;8.154;2023-11-21T03:15:31;1.70;;;1.60;;
26594;SDS011;14238;49.496;8.154;2023-11-21T03:17:58;1.23;;;1.20;;
26594;SDS011;14238;49.496;8.154;2023-11-21T03:20:23;2.67;;;1.73;;
26594;SDS011;14238;49.496;8.154;2023-11-21T03:22:49;1.47;;;1.47;;
26594;SDS011;14238;49.496;8.154;2023-11-21T03:25:15;1.10;;;1.10;;
26594;SDS011;14238;49.496;8.154;2023-11-21T03:27:42;1.80;;;1.70;;
26594;SDS011;14238;49.496;8.154;2023-11-21T03:30:09;1.40;;;1.30;;
26594;SDS011;14238;49.496;8.154;2023-11-21T03:32:36;1.17;;;1.17;;
26594;SDS011;14238;49.496;8.154;2023-11-21T03:35:01;2.37;;;1.40;;
26594;SDS011;14238;49.496;8.154;2023-11-21T03:37:28;1.17;;;1.13;;
26594;SDS011;14238;49.496;8.154;2023-11-21T03:39:54;2.00;;;1.20;;
26594;SDS011;14238;49.496;8.154;2023-11-21T03:42:21;1.03;;;1.03;;
26594;SDS011;14238;49.496;8.154;2023-11-21T03:44:46;1.30;;;1.30;;
26594;SDS011;14238;49.496;8.154;2023-11-21T03:47:12;1.00;;;1.00;;
26594;SDS011;14238;49.496;8.154;2023-11-21T03:49:37;1.27;;;1.20;;
26594;SDS011;14238;49.496;8.154;2023-11-21T03:52:03;1.10;;;1.10;;
26594;SDS011;14238;49.496;8.154;2023-11-21T03:54:29;2.03;;;1.30;;
26594;SDS011;14238;49.496;8.154;2023-11-21T03:56:54;1.27;;;1.00;;
26594;SDS011;14238;49.496;8.154;2023-11-21T03:59:20;1.00;;;1.00;;
26594;SDS011;14238;49.496;8.154;2023-11-21T04:01:45;1.13;;;1.13;;
26594;SDS011;14238;49.496;8.154;2023-11-21T04:04:11;1.20;;;1.03;;
26594;SDS011;14238;49.496;8.154;2023-11-21T04:06:37;0.90;;;0.90;;
26594;SDS011;14238;49.496;8.154;2023-11-21T04:09:03;1.10;;;1.10;;
26594;SDS011;14238;49.496;8.154;2023-11-21T04:11:29;1.27;;;1.20;;
26594;SDS011;14238;49.496;8.154;2023-11-21T04:13:55;1.30;;;1.30;;
26594;SDS011;14238;49.496;8.154;2023-11-21T04:16:20;1.50;;;1.50;;
26594;SDS011;14238;49.496;8.154;2023-11-21T04:18:46;1.70;;;1.60;;
26594;SDS011;14238;49.496;8.154;2023-11-21T04:21:11;1.47;;;1.47;;
26594;SDS011;14238;49.496;8.154;2023-11-21T04:23:37;1.60;;;1.60;;
26594;SDS011;14238;49.496;8.154;2023-11-21T04:26:02;1.93;;;1.83;;
26594;SDS011;14238;49.496;8.154;2023-11-21T04:28:28;3.73;;;1.70;;
26594;SDS011;14238;49.496;8.154;2023-11-21T04:30:54;1.50;;;1.50;;
26594;SDS011;14238;49.496;8.154;2023-11-21T04:33:19;1.50;;;1.50;;
26594;SDS011;14238;49.496;8.154;2023-11-21T04:35:46;1.60;;;1.60;;
26594;SDS011;14238;49.496;8.154;2023-11-21T04:38:12;1.50;;;1.50;;
26594;SDS011;14238;49.496;8.154;2023-11-21T04:40:37;1.50;;;1.40;;
26594;SDS011;14238;49.496;8.154;2023-11-21T04:43:03;1.80;;;1.70;;
26594;SDS011;14238;49.496;8.154;2023-11-21T04:45:29;1.40;;;1.40;;
26594;SDS011;14238;49.496;8.154;2023-11-21T04:47:54;1.67;;;1.57;;
26594;SDS011;14238;49.496;8.154;2023-11-21T04:50:21;1.67;;;1.57;;
26594;SDS011;14238;49.496;8.154;2023-11-21T04:52:46;2.10;;;1.90;;
26594;SDS011;14238;49.496;8.154;2023-11-21T04:55:12;1.70;;;1.60;;
26594;SDS011;14238;49.496;8.154;2023-11-21T04:57:39;1.53;;;1.40;;
26594;SDS011;14238;49.496;8.154;2023-11-21T05:00:09;1.83;;;1.73;;
26594;SDS011;14238;49.496;8.154;2023-11-21T05:02:34;1.63;;;1.53;;
26594;SDS011;14238;49.496;8.154;2023-11-21T05:05:00;1.70;;;1.70;;
26594;SDS011;14238;49.496;8.154;2023-11-21T05:07:30;2.47;;;2.27;;
26594;SDS011;14238;49.496;8.154;2023-11-21T05:09:57;2.30;;;1.97;;
26594;SDS011;14238;49.496;8.154;2023-11-21T05:12:23;1.90;;;1.80;;
26594;SDS011;14238;49.496;8.154;2023-11-21T05:14:49;1.50;;;1.37;;
26594;SDS011;14238;49.496;8.154;2023-11-21T05:17:15;1.73;;;1.63;;
26594;SDS011;14238;49.496;8.154;2023-11-21T05:19:41;2.00;;;1.90;;
26594;SDS011;14238;49.496;8.154;2023-11-21T05:22:07;1.60;;;1.50;;
26594;SDS011;14238;49.496;8.154;2023-11-21T05:24:33;1.90;;;1.80;;
26594;SDS011;14238;49.496;8.154;2023-11-21T05:27:00;2.07;;;1.97;;
26594;SDS011;14238;49.496;8.154;2023-11-21T05:29:25;1.90;;;1.80;;
26594;SDS011;14238;49.496;8.154;2023-11-21T05:31:51;1.80;;;1.77;;
26594;SDS011;14238;49.496;8.154;2023-11-21T05:34:18;1.87;;;1.77;;
26594;SDS011;14238;49.496;8.154;2023-11-21T05:36:43;2.63;;;2.43;;
26594;SDS011;14238;49.496;8.154;2023-11-21T05:39:10;1.90;;;1.80;;
26594;SDS011;14238;49.496;8.154;2023-11-21T05:41:36;2.10;;;2.00;;
26594;SDS011;14238;49.496;8.154;2023-11-21T05:44:02;2.70;;;2.50;;
26594;SDS011;14238;49.496;8.154;2023-11-21T05:46:27;2.10;;;2.00;;
26594;SDS011;14238;49.496;8.154;2023-11-21T05:48:53;2.40;;;2.30;;
26594;SDS011;14238;49.496;8.154;2023-11-21T05:51:18;2.90;;;2.63;;
26594;SDS011;14238;49.496;8.154;2023-11-21T05:53:44;3.40;;;3.20;;
26594;SDS011;14238;49.496;8.154;2023-11-21T05:56:09;3.17;;;2.97;;
26594;SDS011;14238;49.496;8.154;2023-11-21T05:58:35;3.20;;;2.90;;
26594;SDS011;14238;49.496;8.154;2023-11-21T06:01:01;3.23;;;3.03;;
26594;SDS011;14238;49.496;8.154;2023-11-21T06:03:28;2.50;;;2.33;;
26594;SDS011;14238;49.496;8.154;2023-11-21T06:05:53;2.63;;;2.43;;
26594;SDS011;14238;49.496;8.154;2023-11-21T06:08:19;2.80;;;2.60;;
26594;SDS011;14238;49.496;8.154;2023-11-21T06:10:44;3.50;;;3.20;;
26594;SDS011;14238;49.496;8.154;2023-11-21T06:13:10;2.90;;;2.60;;
26594;SDS011;14238;49.496;8.154;2023-11-21T06:15:35;3.70;;;3.10;;
26594;SDS011;14238;49.496;8.154;2023-11-21T06:18:01;2.70;;;2.50;;
26594;SDS011;14238;49.496;8.154;2023-11-21T06:20:27;3.20;;;2.93;;
26594;SDS011;14238;49.496;8.154;2023-11-21T06:22:53;2.93;;;2.73;;
26594;SDS011;14238;49.496;8.154;2023-11-21T06:25:19;3.40;;;3.20;;
26594;SDS011;14238;49.496;8.154;2023-11-21T06:27:45;2.90;;;2.70;;
26594;SDS011;14238;49.496;8.154;2023-11-21T06:30:14;2.77;;;2.60;;
26594;SDS011;14238;49.496;8.154;2023-11-21T06:32:42;3.10;;;2.90;;
26594;SDS011;14238;49.496;8.154;2023-11-21T06:35:11;2.63;;;2.43;;
26594;SDS011;14238;49.496;8.154;2023-11-21T06:37:38;2.70;;;2.50;;
26594;SDS011;14238;49.496;8.154;2023-11-21T06:40:04;2.70;;;2.50;;
26594;SDS011;14238;49.496;8.154;2023-11-21T06:42:30;3.73;;;3.30;;
26594;SDS011;14238;49.496;8.154;2023-11-21T06:44:55;3.10;;;2.90;;
26594;SDS011;14238;49.496;8.154;2023-11-21T06:47:22;2.93;;;2.73;;
26594;SDS011;14238;49.496;8.154;2023-11-21T06:49:51;3.30;;;3.10;;
26594;SDS011;14238;49.496;8.154;2023-11-21T06:52:20;3.23;;;3.03;;
26594;SDS011;14238;49.496;8.154;2023-11-21T06:54:47;4.10;;;3.80;;
26594;SDS011;14238;49.496;8.154;2023-11-21T06:57:14;3.00;;;2.80;;
26594;SDS011;14238;49.496;8.154;2023-11-21T06:59:40;3.53;;;3.10;;
26594;SDS011;14238;49.496;8.154;2023-11-21T07:02:05;3.50;;;3.20;;
26594;SDS011;14238;49.496;8.154;2023-11-21T07:04:34;4.47;;;3.70;;
26594;SDS011;14238;49.496;8.154;2023-11-21T07:07:01;5.03;;;3.40;;
26594;SDS011;14238;49.496;8.154;2023-11-21T07:09:31;5.07;;;4.20;;
26594;SDS011;14238;49.496;8.154;2023-11-21T07:11:57;5.23;;;4.13;;
26594;SDS011;14238;49.496;8.154;2023-11-21T07:14:22;5.43;;;4.60;;
26594;SDS011;14238;49.496;8.154;2023-11-21T07:16:48;4.50;;;3.73;;
26594;SDS011;14238;49.496;8.154;2023-11-21T07:19:14;5.27;;;4.67;;
26594;SDS011;14238;49.496;8.154;2023-11-21T07:21:40;5.30;;;4.80;;
26594;SDS011;14238;49.496;8.154;2023-11-21T07:24:06;4.97;;;4.50;;
26594;SDS011;14238;49.496;8.154;2023-11-21T07:26:33;5.87;;;5.37;;
26594;SDS011;14238;49.496;8.154;2023-11-21T07:28:59;5.50;;;5.00;;
26594;SDS011;14238;49.496;8.154;2023-11-21T07:31:28;5.30;;;4.80;;
26594;SDS011;14238;49.496;8.154;2023-11-21T07:33:56;5.63;;;4.40;;
26594;SDS011;14238;49.496;8.154;2023-11-21T07:36:22;6.17;;;5.57;;
26594;SDS011;14238;49.496;8.154;2023-11-21T07:38:48;5.40;;;4.90;;
26594;SDS011;14238;49.496;8.154;2023-11-21T07:41:14;5.07;;;4.67;;
26594;SDS011;14238;49.496;8.154;2023-11-21T07:43:43;6.07;;;5.47;;
26594;SDS011;14238;49.496;8.154;2023-11-21T07:46:09;6.77;;;6.07;;
26594;SDS011;14238;49.496;8.154;2023-11-21T07:48:37;4.33;;;3.93;;
26594;SDS011;14238;49.496;8.154;2023-11-21T07:51:07;5.23;;;4.83;;
26594;SDS011;14238;49.496;8.154;2023-11-21T07:53:34;4.80;;;4.40;;
26594;SDS011;14238;49.496;8.154;2023-11-21T07:56:03;5.37;;;4.93;;
26594;SDS011;14238;49.496;8.154;2023-11-21T07:58:30;4.53;;;4.23;;
26594;SDS011;14238;49.496;8.154;2023-11-21T08:00:58;5.47;;;4.97;;
26594;SDS011;14238;49.496;8.154;2023-11-21T08:03:24;5.40;;;4.60;;
26594;SDS011;14238;49.496;8.154;2023-11-21T08:05:51;6.30;;;5.70;;
26594;SDS011;14238;49.496;8.154;2023-11-21T08:08:17;5.60;;;5.10;;
26594;SDS011;14238;49.496;8.154;2023-11-21T08:10:43;5.87;;;5.33;;
26594;SDS011;14238;49.496;8.154;2023-11-21T08:13:13;5.33;;;4.83;;
26594;SDS011;14238;49.496;8.154;2023-11-21T08:15:40;5.60;;;5.10;;
26594;SDS011;14238;49.496;8.154;2023-11-21T08:18:10;4.90;;;4.50;;
26594;SDS011;14238;49.496;8.154;2023-11-21T08:20:35;4.70;;;4.30;;
26594;SDS011;14238;49.496;8.154;2023-11-21T08:23:03;4.90;;;4.50;;
26594;SDS011;14238;49.496;8.154;2023-11-21T08:25:30;5.37;;;4.93;;
26594;SDS011;14238;49.496;8.154;2023-11-21T08:27:56;5.67;;;5.17;;
26594;SDS011;14238;49.496;8.154;2023-11-21T08:30:22;4.97;;;4.47;;
26594;SDS011;14238;49.496;8.154;2023-11-21T08:32:49;4.73;;;4.23;;
26594;SDS011;14238;49.496;8.154;2023-11-21T08:35:16;4.77;;;4.47;;
26594;SDS011;14238;49.496;8.154;2023-11-21T08:37:41;4.17;;;3.87;;
26594;SDS011;14238;49.496;8.154;2023-11-21T08:40:08;5.90;;;4.40;;
26594;SDS011;14238;49.496;8.154;2023-11-21T08:42:34;4.67;;;3.80;;
26594;SDS011;14238;49.496;8.154;2023-11-21T08:45:00;4.30;;;3.90;;
26594;SDS011;14238;49.496;8.154;2023-11-21T08:47:26;5.20;;;4.20;;
26594;SDS011;14238;49.496;8.154;2023-11-21T08:49:52;6.90;;;4.30;;
26594;SDS011;14238;49.496;8.154;2023-11-21T08:52:18;4.80;;;4.40;;
26594;SDS011;14238;49.496;8.154;2023-11-21T08:54:47;4.30;;;4.00;;
26594;SDS011;14238;49.496;8.154;2023-11-21T08:57:13;4.50;;;4.20;;
26594;SDS011;14238;49.496;8.154;2023-11-21T08:59:39;4.70;;;4.30;;
26594;SDS011;14238;49.496;8.154;2023-11-21T09:02:04;6.50;;;4.67;;
26594;SDS011;14238;49.496;8.154;2023-11-21T09:04:30;4.87;;;4.47;;
26594;SDS011;14238;49.496;8.154;2023-11-21T09:06:56;4.70;;;4.30;;
26594;SDS011;14238;49.496;8.154;2023-11-21T09:09:24;4.23;;;3.93;;
26594;SDS011;14238;49.496;8.154;2023-11-21T09:11:50;4.93;;;4.57;;
26594;SDS011;14238;49.496;8.154;2023-11-21T09:14:16;5.63;;;5.17;;
26594;SDS011;14238;49.496;8.154;2023-11-21T09:16:42;4.70;;;4.30;;
26594;SDS011;14238;49.496;8.154;2023-11-21T09:19:08;4.73;;;4.37;;
26594;SDS011;14238;49.496;8.154;2023-11-21T09:21:34;4.97;;;4.53;;
26594;SDS011;14238;49.496;8.154;2023-11-21T09:23:59;5.83;;;5.30;;
26594;SDS011;14238;49.496;8.154;2023-11-21T09:26:25;6.23;;;5.60;;
26594;SDS011;14238;49.496;8.154;2023-11-21T09:28:51;5.97;;;5.40;;
26594;SDS011;14238;49.496;8.154;2023-11-21T09:31:17;6.30;;;5.70;;
26594;SDS011;14238;49.496;8.154;2023-11-21T09:33:44;5.40;;;4.90;;
26594;SDS011;14238;49.496;8.154;2023-11-21T09:36:13;7.80;;;5.47;;
26594;SDS011;14238;49.496;8.154;2023-11-21T09:38:39;5.40;;;4.90;;
26594;SDS011;14238;49.496;8.154;2023-11-21T09:41:06;5.60;;;5.20;;
26594;SDS011;14238;49.496;8.154;2023-11-21T09:43:42;7.43;;;5.53;;
26594;SDS011;14238;49.496;8.154;2023-11-21T09:46:09;5.50;;;5.10;;
26594;SDS011;14238;49.496;8.154;2023-11-21T09:48:41;5.67;;;5.17;;
26594;SDS011;14238;49.496;8.154;2023-11-21T09:51:07;6.93;;;6.20;;
26594;SDS011;14238;49.496;8.154;2023-11-21T09:53:33;5.53;;;5.03;;
26594;SDS011;14238;49.496;8.154;2023-11-21T09:56:00;5.97;;;5.47;;
26594;SDS011;14238;49.496;8.154;2023-11-21T09:58:27;5.47;;;5.07;;
26594;SDS011;14238;49.496;8.154;2023-11-21T10:00:53;5.60;;;5.17;;
26594;SDS011;14238;49.496;8.154;2023-11-21T10:03:21;5.23;;;4.83;;
26594;SDS011;14238;49.496;8.154;2023-11-21T10:05:47;5.83;;;5.23;;
26594;SDS011;14238;49.496;8.154;2023-11-21T10:08:15;5.10;;;4.60;;
26594;SDS011;14238;49.496;8.154;2023-11-21T10:10:44;5.70;;;5.20;;
26594;SDS011;14238;49.496;8.154;2023-11-21T10:13:11;4.80;;;4.50;;
26594;SDS011;14238;49.496;8.154;2023-11-21T10:15:41;4.80;;;4.33;;
26594;SDS011;14238;49.496;8.154;2023-11-21T10:18:13;6.27;;;5.47;;
26594;SDS011;14238;49.496;8.154;2023-11-21T10:20:40;4.90;;;4.20;;
26594;SDS011;14238;49.496;8.154;2023-11-21T10:23:07;4.40;;;4.10;;
26594;SDS011;14238;49.496;8.154;2023-11-21T10:25:36;6.23;;;4.13;;
26594;SDS011;14238;49.496;8.154;2023-11-21T10:28:02;4.23;;;3.93;;
26594;SDS011;14238;49.496;8.154;2023-11-21T10:30:35;3.87;;;3.57;;
26594;SDS011;14238;49.496;8.154;2023-11-21T10:33:03;4.20;;;3.90;;
26594;SDS011;14238;49.496;8.154;2023-11-21T10:35:39;5.00;;;4.17;;
26594;SDS011;14238;49.496;8.154;2023-11-21T10:38:07;6.20;;;3.80;;
26594;SDS011;14238;49.496;8.154;2023-11-21T10:40:37;4.40;;;4.10;;
26594;SDS011;14238;49.496;8.154;2023-11-21T10:43:10;3.70;;;3.40;;
26594;SDS011;14238;49.496;8.154;2023-11-21T10:45:38;3.40;;;3.10;;
26594;SDS011;14238;49.496;8.154;2023-11-21T10:48:07;3.97;;;3.53;;
26594;SDS011;14238;49.496;8.154;2023-11-21T10:50:35;4.93;;;3.93;;
26594;SDS011;14238;49.496;8.154;2023-11-21T10:53:01;3.80;;;3.50;;
26594;SDS011;14238;49.496;8.154;2023-11-21T10:55:29;3.90;;;3.57;;
26594;SDS011;14238;49.496;8.154;2023-11-21T10:57:57;4.67;;;3.57;;
26594;SDS011;14238;49.496;8.154;2023-11-21T11:00:24;4.10;;;3.60;;
26594;SDS011;14238;49.496;8.154;2023-11-21T11:02:52;5.30;;;3.33;;
26594;SDS011;14238;49.496;8.154;2023-11-21T11:05:20;4.27;;;3.97;;
26594;SDS011;14238;49.496;8.154;2023-11-21T11:07:48;4.37;;;3.73;;
26594;SDS011;14238;49.496;8.154;2023-11-21T11:10:20;4.83;;;3.33;;
26594;SDS011;14238;49.496;8.154;2023-11-21T11:12:48;3.87;;;3.60;;
26594;SDS011;14238;49.496;8.154;2023-11-21T11:15:15;4.03;;;3.73;;
26594;SDS011;14238;49.496;8.154;2023-11-21T11:17:41;5.23;;;3.63;;
26594;SDS011;14238;49.496;8.154;2023-11-21T11:20:09;3.83;;;3.47;;
26594;SDS011;14238;49.496;8.154;2023-11-21T11:22:59;3.87;;;3.23;;
26594;SDS011;14238;49.496;8.154;2023-11-21T11:28:22;3.27;;;3.00;;
26594;SDS011;14238;49.496;8.154;2023-11-21T11:31:08;3.40;;;3.10;;
26594;SDS011;14238;49.496;8.154;2023-11-21T11:33:45;3.20;;;2.93;;
26594;SDS011;14238;49.496;8.154;2023-11-21T11:39:27;3.93;;;3.20;;
26594;SDS011;14238;49.496;8.154;2023-11-21T11:41:57;2.87;;;2.67;;
26594;SDS011;14238;49.496;8.154;2023-11-21T11:47:31;2.63;;;2.43;;
26594;SDS011;14238;49.496;8.154;2023-11-21T11:50:06;3.43;;;2.93;;
26594;SDS011;14238;49.496;8.154;2023-11-21T11:52:42;4.40;;;2.50;;
26594;SDS011;14238;49.496;8.154;2023-11-21T11:55:13;2.90;;;2.70;;
26594;SDS011;14238;49.496;8.154;2023-11-21T11:57:43;3.60;;;3.30;;
26594;SDS011;14238;49.496;8.154;2023-11-21T12:03:08;3.30;;;3.10;;
26594;SDS011;14238;49.496;8.154;2023-11-21T12:05:34;4.27;;;3.40;;
26594;SDS011;14238;49.496;8.154;2023-11-21T12:08:04;3.13;;;2.93;;
26594;SDS011;14238;49.496;8.154;2023-11-21T12:10:31;4.10;;;3.00;;
26594;SDS011;14238;49.496;8.154;2023-11-21T12:13:03;3.63;;;3.33;;
26594;SDS011;14238;49.496;8.154;2023-11-21T12:15:35;3.80;;;2.80;;
26594;SDS011;14238;49.496;8.154;2023-11-21T12:18:01;2.90;;;2.70;;
26594;SDS011;14238;49.496;8.154;2023-11-21T12:20:27;3.77;;;2.20;;
26594;SDS011;14238;49.496;8.154;2023-11-21T12:22:54;3.53;;;2.23;;
26594;SDS011;14238;49.496;8.154;2023-11-21T12:25:22;2.70;;;2.10;;
26594;SDS011;14238;49.496;8.154;2023-11-21T12:27:49;3.13;;;2.73;;
26594;SDS011;14238;49.496;8.154;2023-11-21T12:30:19;3.63;;;2.77;;
26594;SDS011;14238;49.496;8.154;2023-11-21T12:32:53;2.37;;;2.23;;
26594;SDS011;14238;49.496;8.154;2023-11-21T12:35:30;2.93;;;2.40;;
26594;SDS011;14238;49.496;8.154;2023-11-21T12:37:59;3.80;;;2.60;;
26594;SDS011;14238;49.496;8.154;2023-11-21T12:40:27;2.60;;;2.37;;
26594;SDS011;14238;49.496;8.154;2023-11-21T12:42:55;3.53;;;2.50;;
26594;SDS011;14238;49.496;8.154;2023-11-21T12:45:22;2.80;;;2.60;;
26594;SDS011;14238;49.496;8.154;2023-11-21T12:47:54;2.30;;;2.10;;
26594;SDS011;14238;49.496;8.154;2023-11-21T12:50:24;2.60;;;2.30;;
26594;SDS011;14238;49.496;8.154;2023-11-21T12:52:54;2.27;;;2.10;;
26594;SDS011;14238;49.496;8.154;2023-11-21T12:55:23;2.63;;;2.20;;
26594;SDS011;14238;49.496;8.154;2023-11-21T12:57:51;3.87;;;2.90;;
26594;SDS011;14238;49.496;8.154;2023-11-21T13:00:19;2.37;;;2.27;;
26594;SDS011;14238;49.496;8.154;2023-11-21T13:02:55;2.00;;;1.80;;
26594;SDS011;14238;49.496;8.154;2023-11-21T13:05:28;2.50;;;2.10;;
26594;SDS011;14238;49.496;8.154;2023-11-21T13:07:55;2.40;;;2.20;;
26594;SDS011;14238;49.496;8.154;2023-11-21T13:10:26;3.20;;;2.90;;
26594;SDS011;14238;49.496;8.154;2023-11-21T13:12:59;4.00;;;3.10;;
26594;SDS011;14238;49.496;8.154;2023-11-21T13:15:26;5.00;;;2.77;;
26594;SDS011;14238;49.496;8.154;2023-11-21T13:17:53;3.87;;;2.73;;
26594;SDS011;14238;49.496;8.154;2023-11-21T13:20:19;2.60;;;2.40;;
26594;SDS011;14238;49.496;8.154;2023-11-21T13:23:07;5.50;;;2.77;;
26594;SDS011;14238;49.496;8.154;2023-11-21T13:25:36;3.47;;;2.87;;
26594;SDS011;14238;49.496;8.154;2023-11-21T13:28:03;2.77;;;2.37;;
26594;SDS011;14238;49.496;8.154;2023-11-21T13:30:30;3.20;;;3.00;;
26594;SDS011;14238;49.496;8.154;2023-11-21T13:33:02;2.80;;;2.60;;
26594;SDS011;14238;49.496;8.154;2023-11-21T13:35:34;2.30;;;2.10;;
26594;SDS011;14238;49.496;8.154;2023-11-21T13:38:09;4.17;;;2.87;;
26594;SDS011;14238;49.496;8.154;2023-11-21T13:40:40;4.03;;;2.87;;
26594;SDS011;14238;49.496;8.154;2023-11-21T13:43:11;3.37;;;2.57;;
26594;SDS011;14238;49.496;8.154;2023-11-21T13:45:37;3.57;;;3.27;;
26594;SDS011;14238;49.496;8.154;2023-11-21T13:48:07;3.33;;;2.90;;
26594;SDS011;14238;49.496;8.154;2023-11-21T13:50:45;2.70;;;2.50;;
26594;SDS011;14238;49.496;8.154;2023-11-21T13:53:21;4.73;;;3.13;;
26594;SDS011;14238;49.496;8.154;2023-11-21T13:55:50;3.70;;;2.80;;
26594;SDS011;14238;49.496;8.154;2023-11-21T13:58:19;4.37;;;2.97;;
26594;SDS011;14238;49.496;8.154;2023-11-21T14:00:51;3.93;;;3.63;;
26594;SDS011;14238;49.496;8.154;2023-11-21T14:03:23;3.37;;;2.87;;
26594;SDS011;14238;49.496;8.154;2023-11-21T14:05:57;3.30;;;3.00;;
26594;SDS011;14238;49.496;8.154;2023-11-21T14:08:23;3.30;;;3.00;;
26594;SDS011;14238;49.496;8.154;2023-11-21T14:10:53;2.87;;;2.63;;
26594;SDS011;14238;49.496;8.154;2023-11-21T14:13:24;3.83;;;2.40;;
26594;SDS011;14238;49.496;8.154;2023-11-21T14:15:50;6.20;;;3.00;;
26594;SDS011;14238;49.496;8.154;2023-11-21T14:18:22;3.10;;;2.90;;
26594;SDS011;14238;49.496;8.154;2023-11-21T14:20:52;3.93;;;2.63;;
26594;SDS011;14238;49.496;8.154;2023-11-21T14:23:18;2.77;;;2.57;;
26594;SDS011;14238;49.496;8.154;2023-11-21T14:25:43;3.20;;;2.90;;
26594;SDS011;14238;49.496;8.154;2023-11-21T14:28:09;3.23;;;2.93;;
26594;SDS011;14238;49.496;8.154;2023-11-21T14:30:37;3.00;;;2.80;;
26594;SDS011;14238;49.496;8.154;2023-11-21T14:33:04;3.13;;;2.83;;
26594;SDS011;14238;49.496;8.154;2023-11-21T14:35:31;4.73;;;4.33;;
26594;SDS011;14238;49.496;8.154;2023-11-21T14:37:57;4.00;;;3.60;;
26594;SDS011;14238;49.496;8.154;2023-11-21T14:40:24;4.90;;;4.27;;
26594;SDS011;14238;49.496;8.154;2023-11-21T14:42:50;5.10;;;4.37;;
26594;SDS011;14238;49.496;8.154;2023-11-21T14:45:19;6.77;;;5.83;;
26594;SDS011;14238;49.496;8.154;2023-11-21T14:47:48;6.17;;;5.20;;
26594;SDS011;14238;49.496;8.154;2023-11-21T14:50:40;7.57;;;5.77;;
26594;SDS011;14238;49.496;8.154;2023-11-21T14:53:07;6.40;;;5.70;;
26594;SDS011;14238;49.496;8.154;2023-11-21T14:55:33;5.70;;;5.00;;
26594;SDS011;14238;49.496;8.154;2023-11-21T14:58:08;6.90;;;4.90;;
26594;SDS011;14238;49.496;8.154;2023-11-21T15:00:39;5.77;;;5.27;;
26594;SDS011;14238;49.496;8.154;2023-11-21T15:03:11;5.63;;;5.13;;